sensor_id;sensor_type;location;lat;lon;timestamp;pressure;altitude;pressure_sealevel;temperature;humidity
72038;BME280;59900;50.788;12.904;2022-08-19T00:00:10;96940.47;;;19.70;86.91
72038;BME280;59900;50.788;12.904;2022-08-19T00:02:35;96945.00;;;19.70;86.67
72038;BME280;59900;50.788;12.904;2022-08-19T00:05:01;96950.06;;;19.61;87.36
72038;BME280;59900;50.788;12.904;2022-08-19T00:07:26;96949.53;;;19.54;88.23
72038;BME280;59900;50.788;12.904;2022-08-19T00:09:52;96956.44;;;19.55;88.48
72038;BME280;59900;50.788;12.904;2022-08-19T00:12:17;96970.88;;;19.54;88.35
72038;BME280;59900;50.788;12.904;2022-08-19T00:14:42;96959.13;;;19.55;88.04
72038;BME280;59900;50.788;12.904;2022-08-19T00:17:09;96952.72;;;19.56;88.20
72038;BME280;59900;50.788;12.904;2022-08-19T00:19:37;96949.28;;;19.61;87.79
72038;BME280;59900;50.788;12.904;2022-08-19T00:22:03;96949.28;;;19.61;87.71
72038;BME280;59900;50.788;12.904;2022-08-19T00:24:29;96945.00;;;19.54;88.09
72038;BME280;59900;50.788;12.904;2022-08-19T00:26:55;96940.22;;;19.56;87.86
72038;BME280;59900;50.788;12.904;2022-08-19T00:29:22;96946.88;;;19.54;88.12
72038;BME280;59900;50.788;12.904;2022-08-19T00:31:49;96950.06;;;19.51;88.76
72038;BME280;59900;50.788;12.904;2022-08-19T00:34:15;96947.94;;;19.53;88.39
72038;BME280;59900;50.788;12.904;2022-08-19T00:36:41;96947.69;;;19.54;88.52
72038;BME280;59900;50.788;12.904;2022-08-19T00:39:07;96940.47;;;19.55;88.32
72038;BME280;59900;50.788;12.904;2022-08-19T00:41:32;96940.22;;;19.56;88.30
72038;BME280;59900;50.788;12.904;2022-08-19T00:44:05;96936.47;;;19.47;88.79
72038;BME280;59900;50.788;12.904;2022-08-19T00:46:32;96926.88;;;19.46;89.07
72038;BME280;59900;50.788;12.904;2022-08-19T00:49:00;96921.81;;;19.50;88.77
72038;BME280;59900;50.788;12.904;2022-08-19T00:51:27;96922.91;;;19.49;89.15
72038;BME280;59900;50.788;12.904;2022-08-19T00:53:55;96914.38;;;19.52;89.24
72038;BME280;59900;50.788;12.904;2022-08-19T00:56:22;96910.88;;;19.46;88.94
72038;BME280;59900;50.788;12.904;2022-08-19T00:58:48;96908.50;;;19.45;89.23
72038;BME280;59900;50.788;12.904;2022-08-19T01:01:14;96915.41;;;19.41;89.15
72038;BME280;59900;50.788;12.904;2022-08-19T01:03:39;96914.88;;;19.44;89.41
72038;BME280;59900;50.788;12.904;2022-08-19T01:06:05;96921.53;;;19.46;89.17
72038;BME280;59900;50.788;12.904;2022-08-19T01:08:30;96921.81;;;19.45;89.58
72038;BME280;59900;50.788;12.904;2022-08-19T01:10:58;96927.41;;;19.43;89.13
72038;BME280;59900;50.788;12.904;2022-08-19T01:13:28;96919.16;;;19.45;89.29
72038;BME280;59900;50.788;12.904;2022-08-19T01:15:58;96930.34;;;19.42;90.00
72038;BME280;59900;50.788;12.904;2022-08-19T01:18:30;96923.16;;;19.47;89.11
72038;BME280;59900;50.788;12.904;2022-08-19T01:21:00;96925.28;;;19.45;89.65
72038;BME280;59900;50.788;12.904;2022-08-19T01:23:27;96920.22;;;19.44;89.37
72038;BME280;59900;50.788;12.904;2022-08-19T01:26:12;96921.31;;;19.43;89.60
72038;BME280;59900;50.788;12.904;2022-08-19T01:28:38;96917.31;;;19.45;89.37
72038;BME280;59900;50.788;12.904;2022-08-19T01:31:04;96917.81;;;19.47;89.19
72038;BME280;59900;50.788;12.904;2022-08-19T01:33:29;96912.78;;;19.46;89.21
72038;BME280;59900;50.788;12.904;2022-08-19T01:36:04;96906.91;;;19.39;89.99
72038;BME280;59900;50.788;12.904;2022-08-19T01:38:29;96913.25;;;19.38;89.54
72038;BME280;59900;50.788;12.904;2022-08-19T01:40:56;96908.72;;;19.38;89.85
72038;BME280;59900;50.788;12.904;2022-08-19T01:43:22;96904.25;;;19.39;90.24
72038;BME280;59900;50.788;12.904;2022-08-19T01:45:47;96912.22;;;19.44;89.87
72038;BME280;59900;50.788;12.904;2022-08-19T01:48:13;96899.19;;;19.42;90.08
72038;BME280;59900;50.788;12.904;2022-08-19T01:50:39;96903.16;;;19.45;89.53
72038;BME280;59900;50.788;12.904;2022-08-19T01:53:07;96901.81;;;19.37;89.87
72038;BME280;59900;50.788;12.904;2022-08-19T01:55:37;96900.47;;;19.30;90.64
72038;BME280;59900;50.788;12.904;2022-08-19T01:58:04;96902.09;;;19.31;90.59
72038;BME280;59900;50.788;12.904;2022-08-19T02:00:31;96903.13;;;19.35;90.47
72038;BME280;59900;50.788;12.904;2022-08-19T02:02:57;96901.56;;;19.34;90.77
72038;BME280;59900;50.788;12.904;2022-08-19T02:05:22;96900.50;;;19.40;90.74
72038;BME280;59900;50.788;12.904;2022-08-19T02:07:48;96907.16;;;19.47;90.63
72038;BME280;59900;50.788;12.904;2022-08-19T02:10:18;96914.88;;;19.44;90.14
72038;BME280;59900;50.788;12.904;2022-08-19T02:12:44;96930.34;;;19.42;90.66
72038;BME280;59900;50.788;12.904;2022-08-19T02:15:11;96941.56;;;19.49;90.47
72038;BME280;59900;50.788;12.904;2022-08-19T02:17:37;96938.06;;;19.53;90.04
72038;BME280;59900;50.788;12.904;2022-08-19T02:20:03;96934.59;;;19.58;89.50
72038;BME280;59900;50.788;12.904;2022-08-19T02:22:29;96932.47;;;19.65;89.40
72038;BME280;59900;50.788;12.904;2022-08-19T02:24:54;96923.69;;;19.70;89.51
72038;BME280;59900;50.788;12.904;2022-08-19T02:27:21;96923.94;;;19.68;89.45
72038;BME280;59900;50.788;12.904;2022-08-19T02:29:47;96919.94;;;19.66;88.87
72038;BME280;59900;50.788;12.904;2022-08-19T02:32:13;96913.81;;;19.65;89.17
72038;BME280;59900;50.788;12.904;2022-08-19T02:34:38;96907.69;;;19.65;89.28
72038;BME280;59900;50.788;12.904;2022-08-19T02:37:04;96905.81;;;19.60;89.59
72038;BME280;59900;50.788;12.904;2022-08-19T02:39:29;96921.00;;;19.65;89.39
72038;BME280;59900;50.788;12.904;2022-08-19T02:41:54;96931.94;;;19.63;89.25
72038;BME280;59900;50.788;12.904;2022-08-19T02:44:20;96943.16;;;19.60;89.36
72038;BME280;59900;50.788;12.904;2022-08-19T02:46:46;96946.88;;;19.59;89.63
72038;BME280;59900;50.788;12.904;2022-08-19T02:49:12;96949.28;;;19.61;89.91
72038;BME280;59900;50.788;12.904;2022-08-19T02:51:41;96940.47;;;19.65;89.34
72038;BME280;59900;50.788;12.904;2022-08-19T02:54:08;96942.06;;;19.66;89.07
72038;BME280;59900;50.788;12.904;2022-08-19T02:56:34;96945.25;;;19.68;89.39
72038;BME280;59900;50.788;12.904;2022-08-19T02:59:00;96953.25;;;19.68;88.92
72038;BME280;59900;50.788;12.904;2022-08-19T03:01:29;96958.06;;;19.66;89.18
72038;BME280;59900;50.788;12.904;2022-08-19T03:03:58;96953.00;;;19.70;89.29
72038;BME280;59900;50.788;12.904;2022-08-19T03:06:25;96959.66;;;19.72;89.17
72038;BME280;59900;50.788;12.904;2022-08-19T03:08:51;96970.84;;;19.74;89.21
72038;BME280;59900;50.788;12.904;2022-08-19T03:13:46;96967.13;;;19.75;89.18
72038;BME280;59900;50.788;12.904;2022-08-19T03:16:14;96963.91;;;19.73;89.35
72038;BME280;59900;50.788;12.904;2022-08-19T03:18:40;96964.72;;;19.74;89.38
72038;BME280;59900;50.788;12.904;2022-08-19T03:21:06;96962.84;;;19.74;89.05
72038;BME280;59900;50.788;12.904;2022-08-19T03:23:31;96965.00;;;19.72;89.28
72038;BME280;59900;50.788;12.904;2022-08-19T03:25:57;96962.31;;;19.67;89.80
72038;BME280;59900;50.788;12.904;2022-08-19T03:28:22;96954.06;;;19.58;89.65
72038;BME280;59900;50.788;12.904;2022-08-19T03:30:59;96952.72;;;19.56;90.72
72038;BME280;59900;50.788;12.904;2022-08-19T03:33:26;96953.78;;;19.50;90.49
72038;BME280;59900;50.788;12.904;2022-08-19T03:38:30;96956.69;;;19.38;91.82
72038;BME280;59900;50.788;12.904;2022-08-19T03:40:55;96964.16;;;19.36;91.85
72038;BME280;59900;50.788;12.904;2022-08-19T03:43:20;96974.03;;;19.41;91.96
72038;BME280;59900;50.788;12.904;2022-08-19T03:45:46;96970.84;;;19.44;91.69
72038;BME280;59900;50.788;12.904;2022-08-19T03:48:12;96970.59;;;19.45;92.06
72038;BME280;59900;50.788;12.904;2022-08-19T03:50:40;96961.22;;;19.38;92.62
72038;BME280;59900;50.788;12.904;2022-08-19T03:53:06;96961.50;;;19.31;92.88
72038;BME280;59900;50.788;12.904;2022-08-19T03:55:32;96965.22;;;19.30;92.78
72038;BME280;59900;50.788;12.904;2022-08-19T03:57:57;96975.06;;;19.35;92.71
72038;BME280;59900;50.788;12.904;2022-08-19T04:00:23;96971.88;;;19.38;92.89
72038;BME280;59900;50.788;12.904;2022-08-19T04:02:48;96964.97;;;19.37;92.60
72038;BME280;59900;50.788;12.904;2022-08-19T04:05:13;96956.47;;;19.40;92.56
72038;BME280;59900;50.788;12.904;2022-08-19T04:07:40;96965.78;;;19.42;92.66
72038;BME280;59900;50.788;12.904;2022-08-19T04:10:05;96958.34;;;19.39;92.94
72038;BME280;59900;50.788;12.904;2022-08-19T04:12:31;96965.25;;;19.40;93.18
72038;BME280;59900;50.788;12.904;2022-08-19T04:14:56;96963.66;;;19.39;93.15
72038;BME280;59900;50.788;12.904;2022-08-19T04:17:22;96962.56;;;19.35;93.21
72038;BME280;59900;50.788;12.904;2022-08-19T04:19:47;96962.28;;;19.32;93.66
72038;BME280;59900;50.788;12.904;2022-08-19T04:22:12;96955.34;;;19.26;94.27
72038;BME280;59900;50.788;12.904;2022-08-19T04:24:37;96959.09;;;19.20;94.86
72038;BME280;59900;50.788;12.904;2022-08-19T04:27:03;96944.69;;;19.16;94.70
72038;BME280;59900;50.788;12.904;2022-08-19T04:29:30;96956.41;;;19.10;95.27
72038;BME280;59900;50.788;12.904;2022-08-19T04:31:56;96950.78;;;19.06;95.59
72038;BME280;59900;50.788;12.904;2022-08-19T04:34:23;96964.38;;;19.05;95.93
72038;BME280;59900;50.788;12.904;2022-08-19T04:36:51;96957.19;;;19.05;95.96
72038;BME280;59900;50.788;12.904;2022-08-19T04:39:23;96964.34;;;18.99;96.25
72038;BME280;59900;50.788;12.904;2022-08-19T04:42:08;96962.50;;;18.95;96.62
72038;BME280;59900;50.788;12.904;2022-08-19T04:44:52;96967.81;;;18.95;97.10
72038;BME280;59900;50.788;12.904;2022-08-19T04:47:17;96953.94;;;18.88;97.35
72038;BME280;59900;50.788;12.904;2022-08-19T04:49:43;96962.72;;;18.88;97.48
72038;BME280;59900;50.788;12.904;2022-08-19T04:52:08;96969.66;;;18.84;97.38
72038;BME280;59900;50.788;12.904;2022-08-19T04:54:34;96983.75;;;18.85;98.50
72038;BME280;59900;50.788;12.904;2022-08-19T04:56:59;96969.38;;;18.86;98.53
72038;BME280;59900;50.788;12.904;2022-08-19T04:59:24;96969.66;;;18.89;98.25
72038;BME280;59900;50.788;12.904;2022-08-19T05:01:52;96968.59;;;18.90;98.18
72038;BME280;59900;50.788;12.904;2022-08-19T05:04:19;96965.41;;;18.88;98.50
72038;BME280;59900;50.788;12.904;2022-08-19T05:06:46;96968.56;;;18.85;98.28
72038;BME280;59900;50.788;12.904;2022-08-19T05:09:12;96965.91;;;18.85;98.66
72038;BME280;59900;50.788;12.904;2022-08-19T05:11:37;96977.38;;;18.81;98.92
72038;BME280;59900;50.788;12.904;2022-08-19T05:14:05;96965.09;;;18.80;98.97
72038;BME280;59900;50.788;12.904;2022-08-19T05:16:30;96977.09;;;18.82;98.86
72038;BME280;59900;50.788;12.904;2022-08-19T05:18:56;96970.19;;;18.86;98.33
72038;BME280;59900;50.788;12.904;2022-08-19T05:21:41;96975.00;;;18.89;98.65
72038;BME280;59900;50.788;12.904;2022-08-19T05:24:26;96982.69;;;18.91;98.38
72038;BME280;59900;50.788;12.904;2022-08-19T05:26:52;96987.78;;;18.92;97.83
72038;BME280;59900;50.788;12.904;2022-08-19T05:29:22;96991.50;;;18.96;98.08
72038;BME280;59900;50.788;12.904;2022-08-19T05:31:49;96994.44;;;19.00;97.70
72038;BME280;59900;50.788;12.904;2022-08-19T05:34:15;96994.47;;;19.05;97.30
72038;BME280;59900;50.788;12.904;2022-08-19T05:36:43;96994.72;;;19.09;96.98
72038;BME280;59900;50.788;12.904;2022-08-19T05:39:13;97000.09;;;19.14;97.04
72038;BME280;59900;50.788;12.904;2022-08-19T05:41:47;97009.41;;;19.16;96.87
72038;BME280;59900;50.788;12.904;2022-08-19T05:44:14;97019.81;;;19.18;96.87
72038;BME280;59900;50.788;12.904;2022-08-19T05:46:43;97021.41;;;19.19;96.89
72038;BME280;59900;50.788;12.904;2022-08-19T05:49:08;97028.06;;;19.21;96.62
72038;BME280;59900;50.788;12.904;2022-08-19T05:51:35;97042.72;;;19.19;96.61
72038;BME280;59900;50.788;12.904;2022-08-19T05:54:01;97046.16;;;19.14;96.66
72038;BME280;59900;50.788;12.904;2022-08-19T05:56:28;97047.75;;;19.10;96.40
72038;BME280;59900;50.788;12.904;2022-08-19T05:58:56;97059.19;;;19.06;97.14
72038;BME280;59900;50.788;12.904;2022-08-19T06:01:21;97064.50;;;19.06;97.31
72038;BME280;59900;50.788;12.904;2022-08-19T06:03:47;97071.97;;;19.09;97.33
72038;BME280;59900;50.788;12.904;2022-08-19T06:06:16;97074.38;;;19.10;97.46
72038;BME280;59900;50.788;12.904;2022-08-19T06:08:42;97071.44;;;19.12;97.32
72038;BME280;59900;50.788;12.904;2022-08-19T06:11:31;97076.25;;;19.10;97.03
72038;BME280;59900;50.788;12.904;2022-08-19T06:14:05;97092.22;;;19.10;97.42
72038;BME280;59900;50.788;12.904;2022-08-19T06:16:33;97100.22;;;19.10;97.06
72038;BME280;59900;50.788;12.904;2022-08-19T06:19:02;97096.50;;;19.11;97.34
72038;BME280;59900;50.788;12.904;2022-08-19T06:21:28;97105.53;;;19.10;96.88
72038;BME280;59900;50.788;12.904;2022-08-19T06:23:58;97107.91;;;19.06;96.89
72038;BME280;59900;50.788;12.904;2022-08-19T06:26:23;97115.09;;;19.06;97.04
72038;BME280;59900;50.788;12.904;2022-08-19T06:28:50;97110.88;;;19.05;97.23
72038;BME280;59900;50.788;12.904;2022-08-19T06:31:24;97112.19;;;19.02;97.33
72038;BME280;59900;50.788;12.904;2022-08-19T06:33:50;97111.09;;;19.03;97.07
72038;BME280;59900;50.788;12.904;2022-08-19T06:36:32;97118.56;;;19.06;97.20
72038;BME280;59900;50.788;12.904;2022-08-19T06:39:03;97119.66;;;19.05;96.93
72038;BME280;59900;50.788;12.904;2022-08-19T06:41:29;97125.53;;;19.07;97.00
72038;BME280;59900;50.788;12.904;2022-08-19T06:43:57;97121.00;;;19.08;97.15
72038;BME280;59900;50.788;12.904;2022-08-19T06:46:23;97127.91;;;19.09;96.95
72038;BME280;59900;50.788;12.904;2022-08-19T06:48:48;97121.78;;;19.08;96.80
72038;BME280;59900;50.788;12.904;2022-08-19T06:51:16;97119.41;;;19.12;97.06
72038;BME280;59900;50.788;12.904;2022-08-19T06:53:51;97118.88;;;19.15;96.73
72038;BME280;59900;50.788;12.904;2022-08-19T06:56:18;97122.91;;;19.22;95.93
72038;BME280;59900;50.788;12.904;2022-08-19T06:58:45;97124.78;;;19.22;96.01
72038;BME280;59900;50.788;12.904;2022-08-19T07:01:12;97117.84;;;19.26;95.90
72038;BME280;59900;50.788;12.904;2022-08-19T07:03:38;97117.31;;;19.29;95.70
72038;BME280;59900;50.788;12.904;2022-08-19T07:06:10;97118.13;;;19.29;95.76
72038;BME280;59900;50.788;12.904;2022-08-19T07:08:36;97106.72;;;19.34;95.75
72038;BME280;59900;50.788;12.904;2022-08-19T07:11:06;97103.81;;;19.40;95.13
72038;BME280;59900;50.788;12.904;2022-08-19T07:13:32;97107.56;;;19.44;95.12
72038;BME280;59900;50.788;12.904;2022-08-19T07:15:58;97099.84;;;19.48;95.08
72038;BME280;59900;50.788;12.904;2022-08-19T07:18:27;97110.50;;;19.53;94.11
72038;BME280;59900;50.788;12.904;2022-08-19T07:21:11;97118.25;;;19.54;94.24
72038;BME280;59900;50.788;12.904;2022-08-19T07:23:37;97116.66;;;19.58;93.87
72038;BME280;59900;50.788;12.904;2022-08-19T07:26:11;97120.13;;;19.59;94.16
72038;BME280;59900;50.788;12.904;2022-08-19T07:28:37;97116.94;;;19.62;93.77
72038;BME280;59900;50.788;12.904;2022-08-19T07:31:05;97116.13;;;19.62;93.96
72038;BME280;59900;50.788;12.904;2022-08-19T07:33:31;97118.50;;;19.58;93.95
72038;BME280;59900;50.788;12.904;2022-08-19T07:35:57;97127.59;;;19.57;94.47
72038;BME280;59900;50.788;12.904;2022-08-19T07:38:23;97136.41;;;19.58;94.28
72038;BME280;59900;50.788;12.904;2022-08-19T07:40:48;97136.66;;;19.56;94.25
72038;BME280;59900;50.788;12.904;2022-08-19T07:43:14;97134.78;;;19.56;94.76
72038;BME280;59900;50.788;12.904;2022-08-19T07:45:40;97133.16;;;19.55;94.29
72038;BME280;59900;50.788;12.904;2022-08-19T07:48:05;97143.03;;;19.50;95.19
72038;BME280;59900;50.788;12.904;2022-08-19T07:50:31;97134.22;;;19.49;95.08
72038;BME280;59900;50.788;12.904;2022-08-19T07:52:57;97145.59;;;19.35;95.13
72038;BME280;59900;50.788;12.904;2022-08-19T07:55:24;97149.28;;;19.24;95.51
72038;BME280;59900;50.788;12.904;2022-08-19T07:57:52;97163.66;;;19.18;95.56
72038;BME280;59900;50.788;12.904;2022-08-19T08:00:18;97160.44;;;19.16;96.54
72038;BME280;59900;50.788;12.904;2022-08-19T08:02:44;97163.63;;;19.13;95.43
72038;BME280;59900;50.788;12.904;2022-08-19T08:05:10;97164.69;;;19.12;95.63
72038;BME280;59900;50.788;12.904;2022-08-19T08:07:54;97168.44;;;19.16;95.81
72038;BME280;59900;50.788;12.904;2022-08-19T08:10:38;97172.72;;;19.17;95.05
72038;BME280;59900;50.788;12.904;2022-08-19T08:13:03;97181.78;;;19.21;94.96
72038;BME280;59900;50.788;12.904;2022-08-19T08:15:30;97182.31;;;19.23;94.82
72038;BME280;59900;50.788;12.904;2022-08-19T08:17:56;97189.03;;;19.30;93.64
72038;BME280;59900;50.788;12.904;2022-08-19T08:20:25;97178.88;;;19.27;93.70
72038;BME280;59900;50.788;12.904;2022-08-19T08:22:50;97171.94;;;19.26;93.97
72038;BME280;59900;50.788;12.904;2022-08-19T08:25:35;97180.50;;;19.28;93.79
72038;BME280;59900;50.788;12.904;2022-08-19T08:28:02;97185.31;;;19.31;94.17
72038;BME280;59900;50.788;12.904;2022-08-19T08:30:29;97185.56;;;19.35;93.77
72038;BME280;59900;50.788;12.904;2022-08-19T08:32:55;97178.13;;;19.37;93.65
72038;BME280;59900;50.788;12.904;2022-08-19T08:35:22;97178.41;;;19.40;93.14
72038;BME280;59900;50.788;12.904;2022-08-19T08:37:49;97169.91;;;19.43;92.97
72038;BME280;59900;50.788;12.904;2022-08-19T08:40:21;97182.19;;;19.49;92.97
72038;BME280;59900;50.788;12.904;2022-08-19T08:42:54;97186.75;;;19.49;92.09
72038;BME280;59900;50.788;12.904;2022-08-19T08:45:25;97189.41;;;19.54;92.73
72038;BME280;59900;50.788;12.904;2022-08-19T08:47:53;97187.03;;;19.58;92.73
72038;BME280;59900;50.788;12.904;2022-08-19T08:50:25;97187.59;;;19.65;92.34
72038;BME280;59900;50.788;12.904;2022-08-19T08:52:56;97195.03;;;19.63;92.00
72038;BME280;59900;50.788;12.904;2022-08-19T08:55:25;97195.03;;;19.63;91.96
72038;BME280;59900;50.788;12.904;2022-08-19T08:57:55;97200.38;;;19.63;91.66
72038;BME280;59900;50.788;12.904;2022-08-19T09:00:27;97193.44;;;19.62;92.03
72038;BME280;59900;50.788;12.904;2022-08-19T09:02:55;97193.44;;;19.56;92.26
72038;BME280;59900;50.788;12.904;2022-08-19T09:05:21;97184.63;;;19.56;93.04
72038;BME280;59900;50.788;12.904;2022-08-19T09:08:04;97185.66;;;19.45;94.09
72038;BME280;59900;50.788;12.904;2022-08-19T09:10:39;97177.03;;;19.33;94.58
72038;BME280;59900;50.788;12.904;2022-08-19T09:15:43;97171.19;;;19.36;94.67
72038;BME280;59900;50.788;12.904;2022-08-19T09:18:10;97167.72;;;19.35;94.25
72038;BME280;59900;50.788;12.904;2022-08-19T09:20:36;97167.00;;;19.40;94.23
72038;BME280;59900;50.788;12.904;2022-08-19T09:23:01;97168.84;;;19.44;94.39
72038;BME280;59900;50.788;12.904;2022-08-19T09:25:27;97168.63;;;19.51;93.86
72038;BME280;59900;50.788;12.904;2022-08-19T09:27:54;97173.44;;;19.59;92.49
72038;BME280;59900;50.788;12.904;2022-08-19T09:30:32;97177.69;;;19.55;92.81
72038;BME280;59900;50.788;12.904;2022-08-19T09:32:58;97182.50;;;19.58;92.95
72038;BME280;59900;50.788;12.904;2022-08-19T09:35:26;97170.00;;;19.64;92.42
72038;BME280;59900;50.788;12.904;2022-08-19T09:37:54;97180.69;;;19.69;92.18
72038;BME280;59900;50.788;12.904;2022-08-19T09:40:19;97177.50;;;19.77;91.03
72038;BME280;59900;50.788;12.904;2022-08-19T09:42:45;97178.06;;;19.84;91.34
72038;BME280;59900;50.788;12.904;2022-08-19T09:45:15;97170.34;;;19.97;90.40
72038;BME280;59900;50.788;12.904;2022-08-19T09:47:41;97162.34;;;19.97;89.68
72038;BME280;59900;50.788;12.904;2022-08-19T09:50:09;97154.09;;;20.09;89.95
72038;BME280;59900;50.788;12.904;2022-08-19T09:52:35;97151.94;;;20.11;89.66
72038;BME280;59900;50.788;12.904;2022-08-19T09:55:05;97168.78;;;20.17;90.27
72038;BME280;59900;50.788;12.904;2022-08-19T09:57:31;97159.22;;;20.31;89.21
72038;BME280;59900;50.788;12.904;2022-08-19T09:59:56;97169.88;;;20.46;88.65
72038;BME280;59900;50.788;12.904;2022-08-19T10:02:21;97162.38;;;20.53;88.38
72038;BME280;59900;50.788;12.904;2022-08-19T10:04:46;97163.19;;;20.58;87.19
72038;BME280;59900;50.788;12.904;2022-08-19T10:07:30;97169.59;;;20.52;87.95
72038;BME280;59900;50.788;12.904;2022-08-19T10:09:56;97181.91;;;20.48;86.47
72038;BME280;59900;50.788;12.904;2022-08-19T10:12:21;97184.31;;;20.40;87.00
72038;BME280;59900;50.788;12.904;2022-08-19T10:14:47;97181.34;;;20.36;87.52
72038;BME280;59900;50.788;12.904;2022-08-19T10:17:13;97174.16;;;20.42;87.88
72038;BME280;59900;50.788;12.904;2022-08-19T10:19:39;97172.00;;;20.39;87.89
72038;BME280;59900;50.788;12.904;2022-08-19T10:22:06;97173.06;;;20.33;87.41
72038;BME280;59900;50.788;12.904;2022-08-19T10:24:32;97173.09;;;20.28;87.61
72038;BME280;59900;50.788;12.904;2022-08-19T10:27:00;97174.69;;;20.34;87.75
72038;BME280;59900;50.788;12.904;2022-08-19T10:29:27;97171.50;;;20.37;87.62
72038;BME280;59900;50.788;12.904;2022-08-19T10:31:53;97178.69;;;20.31;87.16
72038;BME280;59900;50.788;12.904;2022-08-19T10:34:18;97186.69;;;20.26;87.51
72038;BME280;59900;50.788;12.904;2022-08-19T10:36:44;97194.91;;;20.14;87.37
72038;BME280;59900;50.788;12.904;2022-08-19T10:39:10;97204.50;;;20.05;88.16
72038;BME280;59900;50.788;12.904;2022-08-19T10:41:38;97210.88;;;19.94;88.69
72038;BME280;59900;50.788;12.904;2022-08-19T10:44:07;97214.34;;;19.90;89.39
72038;BME280;59900;50.788;12.904;2022-08-19T10:46:37;97220.44;;;19.80;89.37
72038;BME280;59900;50.788;12.904;2022-08-19T10:49:04;97222.28;;;19.75;88.93
72038;BME280;59900;50.788;12.904;2022-08-19T10:51:31;97226.53;;;19.76;89.09
72038;BME280;59900;50.788;12.904;2022-08-19T10:54:15;97224.16;;;19.79;88.48
72038;BME280;59900;50.788;12.904;2022-08-19T10:56:41;97215.63;;;19.87;88.54
72038;BME280;59900;50.788;12.904;2022-08-19T10:59:22;97206.63;;;19.98;87.40
72038;BME280;59900;50.788;12.904;2022-08-19T11:01:48;97202.09;;;20.09;86.02
72038;BME280;59900;50.788;12.904;2022-08-19T11:04:14;97213.06;;;20.18;86.69
72038;BME280;59900;50.788;12.904;2022-08-19T11:06:43;97210.94;;;20.25;86.09
72038;BME280;59900;50.788;12.904;2022-08-19T11:09:11;97208.06;;;20.31;86.76
72038;BME280;59900;50.788;12.904;2022-08-19T11:11:37;97212.28;;;20.37;86.31
72038;BME280;59900;50.788;12.904;2022-08-19T11:14:11;97217.38;;;20.34;86.53
72038;BME280;59900;50.788;12.904;2022-08-19T11:16:37;97222.97;;;20.32;87.02
72038;BME280;59900;50.788;12.904;2022-08-19T11:19:05;97220.31;;;20.27;86.70
72038;BME280;59900;50.788;12.904;2022-08-19T11:21:34;97218.13;;;20.24;87.04
72038;BME280;59900;50.788;12.904;2022-08-19T11:24:04;97213.84;;;20.23;87.02
72038;BME280;59900;50.788;12.904;2022-08-19T11:26:31;97221.59;;;20.14;86.34
72038;BME280;59900;50.788;12.904;2022-08-19T11:28:57;97214.09;;;20.06;87.83
72038;BME280;59900;50.788;12.904;2022-08-19T11:31:27;97221.06;;;20.07;87.91
72038;BME280;59900;50.788;12.904;2022-08-19T11:33:52;97212.78;;;20.04;87.32
72038;BME280;59900;50.788;12.904;2022-08-19T11:36:20;97219.97;;;19.98;87.79
72038;BME280;59900;50.788;12.904;2022-08-19T11:38:47;97216.47;;;19.93;88.22
72038;BME280;59900;50.788;12.904;2022-08-19T11:41:14;97229.25;;;19.86;88.53
72038;BME280;59900;50.788;12.904;2022-08-19T11:43:40;97223.34;;;19.79;88.68
72038;BME280;59900;50.788;12.904;2022-08-19T11:46:06;97219.09;;;19.78;88.94
72038;BME280;59900;50.788;12.904;2022-08-19T11:48:32;97215.09;;;19.80;89.11
72038;BME280;59900;50.788;12.904;2022-08-19T11:50:57;97210.56;;;19.81;89.41
72038;BME280;59900;50.788;12.904;2022-08-19T11:53:23;97212.16;;;19.77;89.75
72038;BME280;59900;50.788;12.904;2022-08-19T11:55:48;97219.88;;;19.73;90.35
72038;BME280;59900;50.788;12.904;2022-08-19T11:58:16;97218.28;;;19.72;90.68
72038;BME280;59900;50.788;12.904;2022-08-19T12:00:42;97227.59;;;19.70;90.44
72038;BME280;59900;50.788;12.904;2022-08-19T12:03:10;97235.28;;;19.61;90.86
72038;BME280;59900;50.788;12.904;2022-08-19T12:05:37;97239.03;;;19.60;90.75
72038;BME280;59900;50.788;12.904;2022-08-19T12:08:03;97236.88;;;19.57;91.16
72038;BME280;59900;50.788;12.904;2022-08-19T12:10:28;97237.16;;;19.61;90.75
72038;BME280;59900;50.788;12.904;2022-08-19T12:12:56;97235.56;;;19.65;90.79
72038;BME280;59900;50.788;12.904;2022-08-19T12:15:22;97245.94;;;19.61;91.07
72038;BME280;59900;50.788;12.904;2022-08-19T12:17:47;97254.72;;;19.51;90.59
72038;BME280;59900;50.788;12.904;2022-08-19T12:20:13;97254.31;;;19.33;91.41
72038;BME280;59900;50.788;12.904;2022-08-19T12:22:40;97258.53;;;19.24;91.96
72038;BME280;59900;50.788;12.904;2022-08-19T12:25:07;97255.53;;;19.15;92.41
72038;BME280;59900;50.788;12.904;2022-08-19T12:27:32;97260.00;;;19.05;93.44
72038;BME280;59900;50.788;12.904;2022-08-19T12:29:57;97262.66;;;19.05;93.68
72038;BME280;59900;50.788;12.904;2022-08-19T12:32:26;97264.56;;;19.14;93.06
72038;BME280;59900;50.788;12.904;2022-08-19T12:34:51;97260.06;;;19.15;92.47
72038;BME280;59900;50.788;12.904;2022-08-19T12:37:17;97264.53;;;19.04;91.99
72038;BME280;59900;50.788;12.904;2022-08-19T12:39:43;97272.94;;;18.91;93.33
72038;BME280;59900;50.788;12.904;2022-08-19T12:42:13;97268.59;;;18.80;93.64
72038;BME280;59900;50.788;12.904;2022-08-19T12:44:40;97269.72;;;18.84;94.04
72038;BME280;59900;50.788;12.904;2022-08-19T12:47:07;97274.44;;;18.77;93.21
72038;BME280;59900;50.788;12.904;2022-08-19T12:49:34;97271.75;;;18.77;93.29
72038;BME280;59900;50.788;12.904;2022-08-19T12:52:04;97277.88;;;18.72;93.73
72038;BME280;59900;50.788;12.904;2022-08-19T12:54:30;97274.63;;;18.70;93.96
72038;BME280;59900;50.788;12.904;2022-08-19T12:56:56;97273.59;;;18.71;93.68
72038;BME280;59900;50.788;12.904;2022-08-19T12:59:22;97263.44;;;18.68;93.98